RJST(METAR)
08/24 03:00
METAR RJST 231800Z 07002KT 9999 FEW030 SCT150 BKN/// 21/18 Q1006 RMK
1CU030 3AC150 A2971=
戻る
トップページへ戻る
IMOC Co,.Ltd.